sensor_id;sensor_type;location;lat;lon;timestamp;P1;durP1;ratioP1;P2;durP2;ratioP2
37527;SDS011;23372;52.050;4.810;2023-06-04T00:02:11;6.10;;;2.07;;
37527;SDS011;23372;52.050;4.810;2023-06-04T00:04:37;2.60;;;1.75;;
37527;SDS011;23372;52.050;4.810;2023-06-04T00:07:03;4.70;;;1.97;;
37527;SDS011;23372;52.050;4.810;2023-06-04T00:09:29;4.40;;;1.90;;
37527;SDS011;23372;52.050;4.810;2023-06-04T00:11:54;4.73;;;1.60;;
37527;SDS011;23372;52.050;4.810;2023-06-04T00:14:20;3.93;;;1.53;;
37527;SDS011;23372;52.050;4.810;2023-06-04T00:16:46;2.93;;;1.70;;
37527;SDS011;23372;52.050;4.810;2023-06-04T00:19:12;3.60;;;2.20;;
37527;SDS011;23372;52.050;4.810;2023-06-04T00:21:37;3.70;;;2.10;;
37527;SDS011;23372;52.050;4.810;2023-06-04T00:24:03;5.97;;;2.10;;
37527;SDS011;23372;52.050;4.810;2023-06-04T00:26:28;4.67;;;1.90;;
37527;SDS011;23372;52.050;4.810;2023-06-04T00:28:54;3.03;;;1.83;;
37527;SDS011;23372;52.050;4.810;2023-06-04T00:31:20;6.73;;;2.20;;
37527;SDS011;23372;52.050;4.810;2023-06-04T00:33:46;6.30;;;2.30;;
37527;SDS011;23372;52.050;4.810;2023-06-04T00:36:12;4.87;;;2.00;;
37527;SDS011;23372;52.050;4.810;2023-06-04T00:38:38;3.60;;;2.30;;
37527;SDS011;23372;52.050;4.810;2023-06-04T00:41:03;4.37;;;2.33;;
37527;SDS011;23372;52.050;4.810;2023-06-04T00:43:29;3.53;;;1.90;;
37527;SDS011;23372;52.050;4.810;2023-06-04T00:45:56;3.67;;;2.10;;
37527;SDS011;23372;52.050;4.810;2023-06-04T00:48:22;5.80;;;2.20;;
37527;SDS011;23372;52.050;4.810;2023-06-04T00:50:50;5.80;;;2.33;;
37527;SDS011;23372;52.050;4.810;2023-06-04T00:53:16;4.57;;;2.13;;
37527;SDS011;23372;52.050;4.810;2023-06-04T00:55:41;4.07;;;2.47;;
37527;SDS011;23372;52.050;4.810;2023-06-04T00:58:07;3.63;;;2.30;;
37527;SDS011;23372;52.050;4.810;2023-06-04T01:00:34;4.40;;;1.97;;
37527;SDS011;23372;52.050;4.810;2023-06-04T01:03:00;4.03;;;2.30;;
37527;SDS011;23372;52.050;4.810;2023-06-04T01:05:44;4.20;;;2.17;;
37527;SDS011;23372;52.050;4.810;2023-06-04T01:08:14;5.10;;;2.70;;
37527;SDS011;23372;52.050;4.810;2023-06-04T01:10:50;6.03;;;2.20;;
37527;SDS011;23372;52.050;4.810;2023-06-04T01:13:20;4.07;;;2.20;;
37527;SDS011;23372;52.050;4.810;2023-06-04T01:15:46;4.20;;;2.10;;
37527;SDS011;23372;52.050;4.810;2023-06-04T01:18:11;5.30;;;2.13;;
37527;SDS011;23372;52.050;4.810;2023-06-04T01:20:52;3.63;;;2.30;;
37527;SDS011;23372;52.050;4.810;2023-06-04T01:23:32;3.53;;;2.10;;
37527;SDS011;23372;52.050;4.810;2023-06-04T01:26:08;6.30;;;2.13;;
37527;SDS011;23372;52.050;4.810;2023-06-04T01:28:35;5.70;;;1.90;;
37527;SDS011;23372;52.050;4.810;2023-06-04T01:31:02;5.03;;;1.90;;
37527;SDS011;23372;52.050;4.810;2023-06-04T01:33:29;4.00;;;2.20;;
37527;SDS011;23372;52.050;4.810;2023-06-04T01:35:55;3.67;;;2.27;;
37527;SDS011;23372;52.050;4.810;2023-06-04T01:38:21;5.63;;;2.23;;
37527;SDS011;23372;52.050;4.810;2023-06-04T01:40:46;6.40;;;3.27;;
37527;SDS011;23372;52.050;4.810;2023-06-04T01:43:12;5.70;;;2.60;;
37527;SDS011;23372;52.050;4.810;2023-06-04T01:45:38;2.77;;;2.10;;
37527;SDS011;23372;52.050;4.810;2023-06-04T01:48:04;3.97;;;2.10;;
37527;SDS011;23372;52.050;4.810;2023-06-04T01:50:31;4.47;;;2.67;;
37527;SDS011;23372;52.050;4.810;2023-06-04T01:52:57;4.37;;;2.10;;
37527;SDS011;23372;52.050;4.810;2023-06-04T01:55:23;7.03;;;3.30;;
37527;SDS011;23372;52.050;4.810;2023-06-04T01:57:50;3.47;;;2.13;;
37527;SDS011;23372;52.050;4.810;2023-06-04T02:00:16;3.63;;;2.20;;
37527;SDS011;23372;52.050;4.810;2023-06-04T02:02:43;3.50;;;2.00;;
37527;SDS011;23372;52.050;4.810;2023-06-04T02:05:16;3.80;;;1.97;;
37527;SDS011;23372;52.050;4.810;2023-06-04T02:07:42;4.63;;;2.20;;
37527;SDS011;23372;52.050;4.810;2023-06-04T02:10:13;5.40;;;2.27;;
37527;SDS011;23372;52.050;4.810;2023-06-04T02:12:40;4.03;;;2.53;;
37527;SDS011;23372;52.050;4.810;2023-06-04T02:15:17;3.47;;;1.87;;
37527;SDS011;23372;52.050;4.810;2023-06-04T02:17:43;6.00;;;1.80;;
37527;SDS011;23372;52.050;4.810;2023-06-04T02:20:10;5.30;;;2.00;;
37527;SDS011;23372;52.050;4.810;2023-06-04T02:22:36;7.53;;;2.03;;
37527;SDS011;23372;52.050;4.810;2023-06-04T02:25:02;4.13;;;2.17;;
37527;SDS011;23372;52.050;4.810;2023-06-04T02:27:29;5.13;;;2.10;;
37527;SDS011;23372;52.050;4.810;2023-06-04T02:29:54;4.63;;;2.73;;
37527;SDS011;23372;52.050;4.810;2023-06-04T02:32:20;2.90;;;1.97;;
37527;SDS011;23372;52.050;4.810;2023-06-04T02:34:45;6.77;;;2.03;;
37527;SDS011;23372;52.050;4.810;2023-06-04T02:37:11;3.70;;;2.20;;
37527;SDS011;23372;52.050;4.810;2023-06-04T02:39:37;3.03;;;1.87;;
37527;SDS011;23372;52.050;4.810;2023-06-04T02:42:02;3.60;;;1.93;;
37527;SDS011;23372;52.050;4.810;2023-06-04T02:44:28;3.43;;;1.93;;
37527;SDS011;23372;52.050;4.810;2023-06-04T02:46:55;3.53;;;1.80;;
37527;SDS011;23372;52.050;4.810;2023-06-04T02:49:20;4.03;;;2.20;;
37527;SDS011;23372;52.050;4.810;2023-06-04T02:51:46;4.17;;;1.90;;
37527;SDS011;23372;52.050;4.810;2023-06-04T02:54:12;3.20;;;1.70;;
37527;SDS011;23372;52.050;4.810;2023-06-04T02:56:37;7.40;;;1.90;;
37527;SDS011;23372;52.050;4.810;2023-06-04T02:59:03;4.43;;;1.60;;
37527;SDS011;23372;52.050;4.810;2023-06-04T03:01:30;4.83;;;2.03;;
37527;SDS011;23372;52.050;4.810;2023-06-04T03:03:55;3.07;;;1.93;;
37527;SDS011;23372;52.050;4.810;2023-06-04T03:06:28;4.50;;;1.80;;
37527;SDS011;23372;52.050;4.810;2023-06-04T03:08:54;3.83;;;1.93;;
37527;SDS011;23372;52.050;4.810;2023-06-04T03:11:20;5.00;;;2.00;;
37527;SDS011;23372;52.050;4.810;2023-06-04T03:13:46;2.23;;;1.80;;
37527;SDS011;23372;52.050;4.810;2023-06-04T03:16:13;3.63;;;1.93;;
37527;SDS011;23372;52.050;4.810;2023-06-04T03:18:39;3.90;;;1.70;;
37527;SDS011;23372;52.050;4.810;2023-06-04T03:21:06;4.40;;;1.80;;
37527;SDS011;23372;52.050;4.810;2023-06-04T03:23:32;5.77;;;2.20;;
37527;SDS011;23372;52.050;4.810;2023-06-04T03:26:00;5.03;;;2.03;;
37527;SDS011;23372;52.050;4.810;2023-06-04T03:28:29;4.17;;;1.67;;
37527;SDS011;23372;52.050;4.810;2023-06-04T03:30:56;3.50;;;1.80;;
37527;SDS011;23372;52.050;4.810;2023-06-04T03:33:22;4.17;;;1.80;;
37527;SDS011;23372;52.050;4.810;2023-06-04T03:35:49;4.20;;;2.03;;
37527;SDS011;23372;52.050;4.810;2023-06-04T03:38:15;3.13;;;2.03;;
37527;SDS011;23372;52.050;4.810;2023-06-04T03:40:41;5.27;;;2.23;;
37527;SDS011;23372;52.050;4.810;2023-06-04T03:43:07;4.47;;;2.30;;
37527;SDS011;23372;52.050;4.810;2023-06-04T03:45:33;6.27;;;2.60;;
37527;SDS011;23372;52.050;4.810;2023-06-04T03:47:59;2.77;;;1.90;;
37527;SDS011;23372;52.050;4.810;2023-06-04T03:50:24;4.33;;;2.27;;
37527;SDS011;23372;52.050;4.810;2023-06-04T03:52:50;4.50;;;2.30;;
37527;SDS011;23372;52.050;4.810;2023-06-04T03:55:16;5.33;;;2.43;;
37527;SDS011;23372;52.050;4.810;2023-06-04T03:57:42;4.17;;;2.23;;
37527;SDS011;23372;52.050;4.810;2023-06-04T04:00:08;6.43;;;2.63;;
37527;SDS011;23372;52.050;4.810;2023-06-04T04:02:37;4.10;;;2.00;;
37527;SDS011;23372;52.050;4.810;2023-06-04T04:05:06;10.33;;;2.40;;
37527;SDS011;23372;52.050;4.810;2023-06-04T04:07:32;7.83;;;2.47;;
37527;SDS011;23372;52.050;4.810;2023-06-04T04:09:57;6.17;;;2.30;;
37527;SDS011;23372;52.050;4.810;2023-06-04T04:12:23;6.13;;;2.03;;
37527;SDS011;23372;52.050;4.810;2023-06-04T04:14:49;4.63;;;2.03;;
37527;SDS011;23372;52.050;4.810;2023-06-04T04:17:14;4.93;;;2.27;;
37527;SDS011;23372;52.050;4.810;2023-06-04T04:19:40;5.23;;;2.33;;
37527;SDS011;23372;52.050;4.810;2023-06-04T04:22:05;5.73;;;1.90;;
37527;SDS011;23372;52.050;4.810;2023-06-04T04:24:31;5.30;;;2.37;;
37527;SDS011;23372;52.050;4.810;2023-06-04T04:26:59;5.90;;;2.20;;
37527;SDS011;23372;52.050;4.810;2023-06-04T04:29:25;4.57;;;2.30;;
37527;SDS011;23372;52.050;4.810;2023-06-04T04:31:52;4.43;;;2.20;;
37527;SDS011;23372;52.050;4.810;2023-06-04T04:34:21;5.37;;;2.67;;
37527;SDS011;23372;52.050;4.810;2023-06-04T04:36:48;6.37;;;2.40;;
37527;SDS011;23372;52.050;4.810;2023-06-04T04:39:24;5.40;;;2.23;;
37527;SDS011;23372;52.050;4.810;2023-06-04T04:41:50;6.30;;;2.03;;
37527;SDS011;23372;52.050;4.810;2023-06-04T04:44:16;10.17;;;2.97;;
37527;SDS011;23372;52.050;4.810;2023-06-04T04:46:42;4.87;;;2.10;;
37527;SDS011;23372;52.050;4.810;2023-06-04T04:49:08;5.67;;;2.37;;
37527;SDS011;23372;52.050;4.810;2023-06-04T04:51:34;5.33;;;2.37;;
37527;SDS011;23372;52.050;4.810;2023-06-04T04:54:00;4.70;;;2.30;;
37527;SDS011;23372;52.050;4.810;2023-06-04T04:56:26;4.07;;;2.30;;
37527;SDS011;23372;52.050;4.810;2023-06-04T04:58:52;8.27;;;2.73;;
37527;SDS011;23372;52.050;4.810;2023-06-04T05:01:18;4.37;;;2.30;;
37527;SDS011;23372;52.050;4.810;2023-06-04T05:03:44;5.67;;;2.60;;
37527;SDS011;23372;52.050;4.810;2023-06-04T05:06:10;4.10;;;2.43;;
37527;SDS011;23372;52.050;4.810;2023-06-04T05:08:36;4.83;;;2.63;;
37527;SDS011;23372;52.050;4.810;2023-06-04T05:11:01;5.53;;;2.40;;
37527;SDS011;23372;52.050;4.810;2023-06-04T05:13:27;4.10;;;2.47;;
37527;SDS011;23372;52.050;4.810;2023-06-04T05:15:52;8.57;;;3.00;;
37527;SDS011;23372;52.050;4.810;2023-06-04T05:18:18;5.20;;;2.50;;
37527;SDS011;23372;52.050;4.810;2023-06-04T05:20:45;6.43;;;2.37;;
37527;SDS011;23372;52.050;4.810;2023-06-04T05:23:11;3.53;;;2.00;;
37527;SDS011;23372;52.050;4.810;2023-06-04T05:25:37;6.20;;;2.67;;
37527;SDS011;23372;52.050;4.810;2023-06-04T05:28:03;2.87;;;2.03;;
37527;SDS011;23372;52.050;4.810;2023-06-04T05:30:30;6.67;;;2.40;;
37527;SDS011;23372;52.050;4.810;2023-06-04T05:32:56;5.27;;;2.10;;
37527;SDS011;23372;52.050;4.810;2023-06-04T05:35:22;7.40;;;2.80;;
37527;SDS011;23372;52.050;4.810;2023-06-04T05:37:47;8.77;;;2.53;;
37527;SDS011;23372;52.050;4.810;2023-06-04T05:40:18;5.07;;;2.30;;
37527;SDS011;23372;52.050;4.810;2023-06-04T05:42:46;6.17;;;2.57;;
37527;SDS011;23372;52.050;4.810;2023-06-04T05:45:12;4.27;;;2.37;;
37527;SDS011;23372;52.050;4.810;2023-06-04T05:47:37;4.23;;;2.10;;
37527;SDS011;23372;52.050;4.810;2023-06-04T05:50:03;5.57;;;2.37;;
37527;SDS011;23372;52.050;4.810;2023-06-04T05:52:29;8.20;;;2.37;;
37527;SDS011;23372;52.050;4.810;2023-06-04T05:54:56;5.78;;;2.38;;
37527;SDS011;23372;52.050;4.810;2023-06-04T05:57:21;8.48;;;2.40;;
37527;SDS011;23372;52.050;4.810;2023-06-04T05:59:47;3.33;;;1.83;;
37527;SDS011;23372;52.050;4.810;2023-06-04T06:02:12;5.65;;;2.13;;
37527;SDS011;23372;52.050;4.810;2023-06-04T06:04:39;6.82;;;2.03;;
37527;SDS011;23372;52.050;4.810;2023-06-04T06:07:05;4.78;;;2.17;;
37527;SDS011;23372;52.050;4.810;2023-06-04T06:09:31;5.93;;;2.13;;
37527;SDS011;23372;52.050;4.810;2023-06-04T06:11:56;6.60;;;2.42;;
37527;SDS011;23372;52.050;4.810;2023-06-04T06:14:23;3.28;;;2.00;;
37527;SDS011;23372;52.050;4.810;2023-06-04T06:16:48;4.40;;;2.03;;
37527;SDS011;23372;52.050;4.810;2023-06-04T06:19:14;8.88;;;2.08;;
37527;SDS011;23372;52.050;4.810;2023-06-04T06:21:40;6.80;;;1.92;;
37527;SDS011;23372;52.050;4.810;2023-06-04T06:24:05;5.05;;;1.88;;
37527;SDS011;23372;52.050;4.810;2023-06-04T06:26:31;3.83;;;1.77;;
37527;SDS011;23372;52.050;4.810;2023-06-04T06:28:57;5.57;;;1.60;;
37527;SDS011;23372;52.050;4.810;2023-06-04T06:31:22;7.50;;;2.90;;
37527;SDS011;23372;52.050;4.810;2023-06-04T06:33:48;4.30;;;1.65;;
37527;SDS011;23372;52.050;4.810;2023-06-04T06:36:13;2.78;;;1.30;;
37527;SDS011;23372;52.050;4.810;2023-06-04T06:38:43;4.07;;;1.60;;
37527;SDS011;23372;52.050;4.810;2023-06-04T06:41:10;5.75;;;1.80;;
37527;SDS011;23372;52.050;4.810;2023-06-04T06:43:36;3.92;;;1.60;;
37527;SDS011;23372;52.050;4.810;2023-06-04T06:46:01;5.20;;;1.40;;
37527;SDS011;23372;52.050;4.810;2023-06-04T06:48:27;5.35;;;1.60;;
37527;SDS011;23372;52.050;4.810;2023-06-04T06:50:53;6.60;;;1.75;;
37527;SDS011;23372;52.050;4.810;2023-06-04T06:53:19;3.53;;;1.60;;
37527;SDS011;23372;52.050;4.810;2023-06-04T06:55:45;7.13;;;1.90;;
37527;SDS011;23372;52.050;4.810;2023-06-04T06:58:10;4.80;;;1.58;;
37527;SDS011;23372;52.050;4.810;2023-06-04T07:00:36;3.03;;;1.10;;
37527;SDS011;23372;52.050;4.810;2023-06-04T07:03:02;3.55;;;1.23;;
37527;SDS011;23372;52.050;4.810;2023-06-04T07:05:28;5.53;;;1.30;;
37527;SDS011;23372;52.050;4.810;2023-06-04T07:07:54;6.85;;;1.50;;
37527;SDS011;23372;52.050;4.810;2023-06-04T07:10:22;4.05;;;1.60;;
37527;SDS011;23372;52.050;4.810;2023-06-04T07:12:47;5.28;;;1.80;;
37527;SDS011;23372;52.050;4.810;2023-06-04T07:15:13;3.13;;;1.13;;
37527;SDS011;23372;52.050;4.810;2023-06-04T07:17:39;4.55;;;1.33;;
37527;SDS011;23372;52.050;4.810;2023-06-04T07:20:04;3.80;;;1.33;;
37527;SDS011;23372;52.050;4.810;2023-06-04T07:22:34;3.08;;;1.30;;
37527;SDS011;23372;52.050;4.810;2023-06-04T07:25:00;7.10;;;2.03;;
37527;SDS011;23372;52.050;4.810;2023-06-04T07:27:26;3.60;;;1.00;;
37527;SDS011;23372;52.050;4.810;2023-06-04T07:29:51;5.85;;;1.55;;
37527;SDS011;23372;52.050;4.810;2023-06-04T07:32:17;2.90;;;1.05;;
37527;SDS011;23372;52.050;4.810;2023-06-04T07:34:43;4.72;;;1.20;;
37527;SDS011;23372;52.050;4.810;2023-06-04T07:37:08;3.22;;;1.48;;
37527;SDS011;23372;52.050;4.810;2023-06-04T07:39:34;3.13;;;1.20;;
37527;SDS011;23372;52.050;4.810;2023-06-04T07:42:01;5.22;;;1.38;;
37527;SDS011;23372;52.050;4.810;2023-06-04T07:44:26;3.90;;;1.30;;
37527;SDS011;23372;52.050;4.810;2023-06-04T07:46:52;3.08;;;1.35;;
37527;SDS011;23372;52.050;4.810;2023-06-04T07:49:18;3.58;;;1.30;;
37527;SDS011;23372;52.050;4.810;2023-06-04T07:51:43;4.38;;;1.20;;
37527;SDS011;23372;52.050;4.810;2023-06-04T07:54:09;3.65;;;1.10;;
37527;SDS011;23372;52.050;4.810;2023-06-04T07:56:35;1.90;;;1.00;;
37527;SDS011;23372;52.050;4.810;2023-06-04T07:59:01;5.88;;;1.50;;
37527;SDS011;23372;52.050;4.810;2023-06-04T08:01:26;4.35;;;1.33;;
37527;SDS011;23372;52.050;4.810;2023-06-04T08:03:52;4.07;;;1.30;;
37527;SDS011;23372;52.050;4.810;2023-06-04T08:06:18;2.67;;;1.10;;
37527;SDS011;23372;52.050;4.810;2023-06-04T08:08:44;5.45;;;1.40;;
37527;SDS011;23372;52.050;4.810;2023-06-04T08:11:19;4.35;;;1.25;;
37527;SDS011;23372;52.050;4.810;2023-06-04T08:13:47;1.90;;;1.02;;
37527;SDS011;23372;52.050;4.810;2023-06-04T08:16:13;6.63;;;1.02;;
37527;SDS011;23372;52.050;4.810;2023-06-04T08:18:40;2.92;;;1.50;;
37527;SDS011;23372;52.050;4.810;2023-06-04T08:21:08;4.07;;;1.15;;
37527;SDS011;23372;52.050;4.810;2023-06-04T08:23:35;3.60;;;1.30;;
37527;SDS011;23372;52.050;4.810;2023-06-04T08:26:01;3.85;;;1.27;;
37527;SDS011;23372;52.050;4.810;2023-06-04T08:28:26;3.92;;;1.33;;
37527;SDS011;23372;52.050;4.810;2023-06-04T08:30:52;2.78;;;1.23;;
37527;SDS011;23372;52.050;4.810;2023-06-04T08:33:18;5.30;;;1.15;;
37527;SDS011;23372;52.050;4.810;2023-06-04T08:35:43;3.03;;;1.20;;
37527;SDS011;23372;52.050;4.810;2023-06-04T08:38:09;3.13;;;1.02;;
37527;SDS011;23372;52.050;4.810;2023-06-04T08:40:34;3.80;;;1.27;;
37527;SDS011;23372;52.050;4.810;2023-06-04T08:43:00;3.75;;;1.25;;
37527;SDS011;23372;52.050;4.810;2023-06-04T08:45:26;3.08;;;1.17;;
37527;SDS011;23372;52.050;4.810;2023-06-04T08:47:53;4.30;;;1.33;;
37527;SDS011;23372;52.050;4.810;2023-06-04T08:50:22;5.25;;;1.40;;
37527;SDS011;23372;52.050;4.810;2023-06-04T08:52:52;3.05;;;1.00;;
37527;SDS011;23372;52.050;4.810;2023-06-04T08:55:19;3.25;;;1.35;;
37527;SDS011;23372;52.050;4.810;2023-06-04T08:57:45;6.18;;;1.20;;
37527;SDS011;23372;52.050;4.810;2023-06-04T09:00:14;4.00;;;0.90;;
37527;SDS011;23372;52.050;4.810;2023-06-04T09:02:41;7.05;;;1.20;;
37527;SDS011;23372;52.050;4.810;2023-06-04T09:05:08;7.05;;;1.63;;
37527;SDS011;23372;52.050;4.810;2023-06-04T09:07:35;5.10;;;1.35;;
37527;SDS011;23372;52.050;4.810;2023-06-04T09:10:02;3.28;;;1.55;;
37527;SDS011;23372;52.050;4.810;2023-06-04T09:12:29;7.30;;;1.90;;
37527;SDS011;23372;52.050;4.810;2023-06-04T09:14:57;3.63;;;1.35;;
37527;SDS011;23372;52.050;4.810;2023-06-04T09:17:22;4.28;;;1.38;;
37527;SDS011;23372;52.050;4.810;2023-06-04T09:19:49;6.55;;;1.45;;
37527;SDS011;23372;52.050;4.810;2023-06-04T09:22:15;3.53;;;1.30;;
37527;SDS011;23372;52.050;4.810;2023-06-04T09:24:42;4.22;;;1.70;;
37527;SDS011;23372;52.050;4.810;2023-06-04T09:27:16;4.05;;;1.48;;
37527;SDS011;23372;52.050;4.810;2023-06-04T09:29:52;3.10;;;1.23;;
37527;SDS011;23372;52.050;4.810;2023-06-04T09:34:47;3.50;;;1.70;;
37527;SDS011;23372;52.050;4.810;2023-06-04T09:37:16;6.45;;;1.98;;
37527;SDS011;23372;52.050;4.810;2023-06-04T09:39:42;3.42;;;1.73;;
37527;SDS011;23372;52.050;4.810;2023-06-04T09:42:09;3.35;;;1.48;;
37527;SDS011;23372;52.050;4.810;2023-06-04T09:44:44;4.97;;;1.85;;
37527;SDS011;23372;52.050;4.810;2023-06-04T09:47:13;8.98;;;1.73;;
37527;SDS011;23372;52.050;4.810;2023-06-04T09:49:45;6.13;;;1.70;;
37527;SDS011;23372;52.050;4.810;2023-06-04T09:52:12;4.53;;;1.75;;
37527;SDS011;23372;52.050;4.810;2023-06-04T09:54:41;5.70;;;1.80;;
37527;SDS011;23372;52.050;4.810;2023-06-04T09:57:14;6.88;;;2.17;;
37527;SDS011;23372;52.050;4.810;2023-06-04T09:59:41;3.20;;;1.88;;
37527;SDS011;23372;52.050;4.810;2023-06-04T10:02:09;6.10;;;1.73;;
37527;SDS011;23372;52.050;4.810;2023-06-04T10:04:38;4.57;;;1.63;;
37527;SDS011;23372;52.050;4.810;2023-06-04T10:07:09;6.65;;;2.17;;
37527;SDS011;23372;52.050;4.810;2023-06-04T10:09:40;3.75;;;1.65;;
37527;SDS011;23372;52.050;4.810;2023-06-04T10:12:11;6.88;;;1.67;;
37527;SDS011;23372;52.050;4.810;2023-06-04T10:14:45;3.28;;;2.00;;
37527;SDS011;23372;52.050;4.810;2023-06-04T10:17:17;4.65;;;2.03;;
37527;SDS011;23372;52.050;4.810;2023-06-04T10:19:45;5.70;;;2.15;;
37527;SDS011;23372;52.050;4.810;2023-06-04T10:22:11;5.63;;;2.10;;
37527;SDS011;23372;52.050;4.810;2023-06-04T10:24:37;5.97;;;1.95;;
37527;SDS011;23372;52.050;4.810;2023-06-04T10:27:03;7.15;;;2.10;;
37527;SDS011;23372;52.050;4.810;2023-06-04T10:29:35;3.95;;;1.83;;
37527;SDS011;23372;52.050;4.810;2023-06-04T10:32:01;8.20;;;2.33;;
37527;SDS011;23372;52.050;4.810;2023-06-04T10:34:27;6.95;;;1.70;;
37527;SDS011;23372;52.050;4.810;2023-06-04T10:36:53;8.13;;;2.33;;
37527;SDS011;23372;52.050;4.810;2023-06-04T10:39:26;4.40;;;1.70;;
37527;SDS011;23372;52.050;4.810;2023-06-04T10:42:00;4.30;;;1.73;;
37527;SDS011;23372;52.050;4.810;2023-06-04T10:44:27;5.90;;;2.10;;
37527;SDS011;23372;52.050;4.810;2023-06-04T10:46:54;5.97;;;1.77;;
37527;SDS011;23372;52.050;4.810;2023-06-04T10:49:27;4.90;;;2.00;;
37527;SDS011;23372;52.050;4.810;2023-06-04T10:51:53;4.30;;;2.10;;
37527;SDS011;23372;52.050;4.810;2023-06-04T10:54:24;5.57;;;2.20;;
37527;SDS011;23372;52.050;4.810;2023-06-04T10:56:50;4.72;;;1.90;;
37527;SDS011;23372;52.050;4.810;2023-06-04T10:59:17;5.93;;;1.80;;
37527;SDS011;23372;52.050;4.810;2023-06-04T11:01:44;4.82;;;2.05;;
37527;SDS011;23372;52.050;4.810;2023-06-04T11:04:23;4.38;;;1.85;;
37527;SDS011;23372;52.050;4.810;2023-06-04T11:09:29;3.95;;;2.03;;
37527;SDS011;23372;52.050;4.810;2023-06-04T11:11:58;4.90;;;2.00;;
37527;SDS011;23372;52.050;4.810;2023-06-04T11:14:24;5.55;;;1.60;;
37527;SDS011;23372;52.050;4.810;2023-06-04T11:16:50;8.40;;;2.10;;
37527;SDS011;23372;52.050;4.810;2023-06-04T11:19:16;10.90;;;3.03;;
37527;SDS011;23372;52.050;4.810;2023-06-04T11:21:41;8.90;;;2.80;;
37527;SDS011;23372;52.050;4.810;2023-06-04T11:24:08;6.15;;;1.90;;
37527;SDS011;23372;52.050;4.810;2023-06-04T11:26:34;6.18;;;1.92;;
37527;SDS011;23372;52.050;4.810;2023-06-04T11:29:01;4.00;;;2.00;;
37527;SDS011;23372;52.050;4.810;2023-06-04T11:31:40;4.13;;;1.80;;
37527;SDS011;23372;52.050;4.810;2023-06-04T11:34:07;3.72;;;1.85;;
37527;SDS011;23372;52.050;4.810;2023-06-04T11:36:33;3.40;;;1.52;;
37527;SDS011;23372;52.050;4.810;2023-06-04T11:39:01;7.75;;;2.20;;
37527;SDS011;23372;52.050;4.810;2023-06-04T11:41:30;5.75;;;1.73;;
37527;SDS011;23372;52.050;4.810;2023-06-04T11:43:57;5.57;;;1.70;;
37527;SDS011;23372;52.050;4.810;2023-06-04T11:46:26;3.78;;;1.52;;
37527;SDS011;23372;52.050;4.810;2023-06-04T11:48:52;4.55;;;2.13;;
37527;SDS011;23372;52.050;4.810;2023-06-04T11:51:19;5.93;;;1.55;;
37527;SDS011;23372;52.050;4.810;2023-06-04T11:53:48;5.72;;;1.88;;
37527;SDS011;23372;52.050;4.810;2023-06-04T11:56:14;4.90;;;1.83;;
37527;SDS011;23372;52.050;4.810;2023-06-04T11:58:40;8.07;;;1.90;;
37527;SDS011;23372;52.050;4.810;2023-06-04T12:01:07;8.02;;;2.00;;
37527;SDS011;23372;52.050;4.810;2023-06-04T12:03:37;5.47;;;2.03;;
37527;SDS011;23372;52.050;4.810;2023-06-04T12:08:44;3.25;;;1.83;;
37527;SDS011;23372;52.050;4.810;2023-06-04T12:11:21;3.45;;;2.03;;
37527;SDS011;23372;52.050;4.810;2023-06-04T12:13:57;10.40;;;2.17;;
37527;SDS011;23372;52.050;4.810;2023-06-04T12:16:28;5.45;;;1.50;;
37527;SDS011;23372;52.050;4.810;2023-06-04T12:22:04;5.55;;;1.83;;
37527;SDS011;23372;52.050;4.810;2023-06-04T12:24:34;5.97;;;1.77;;
37527;SDS011;23372;52.050;4.810;2023-06-04T12:27:11;5.32;;;2.03;;
37527;SDS011;23372;52.050;4.810;2023-06-04T12:29:36;4.22;;;1.63;;
37527;SDS011;23372;52.050;4.810;2023-06-04T12:32:06;5.43;;;1.40;;
37527;SDS011;23372;52.050;4.810;2023-06-04T12:34:33;3.55;;;1.70;;
37527;SDS011;23372;52.050;4.810;2023-06-04T12:37:06;5.35;;;1.83;;
37527;SDS011;23372;52.050;4.810;2023-06-04T12:39:33;2.97;;;1.55;;
37527;SDS011;23372;52.050;4.810;2023-06-04T12:41:59;6.68;;;2.10;;
37527;SDS011;23372;52.050;4.810;2023-06-04T12:44:25;8.55;;;1.83;;
37527;SDS011;23372;52.050;4.810;2023-06-04T12:46:51;6.65;;;1.98;;
37527;SDS011;23372;52.050;4.810;2023-06-04T12:49:16;5.40;;;1.73;;
37527;SDS011;23372;52.050;4.810;2023-06-04T12:51:42;3.65;;;1.40;;
37527;SDS011;23372;52.050;4.810;2023-06-04T12:54:07;4.13;;;2.00;;
37527;SDS011;23372;52.050;4.810;2023-06-04T12:56:33;3.45;;;1.50;;
37527;SDS011;23372;52.050;4.810;2023-06-04T12:59:00;3.65;;;1.40;;
37527;SDS011;23372;52.050;4.810;2023-06-04T13:01:25;12.00;;;1.88;;
37527;SDS011;23372;52.050;4.810;2023-06-04T13:03:51;7.53;;;1.88;;
37527;SDS011;23372;52.050;4.810;2023-06-04T13:06:17;4.40;;;1.90;;
37527;SDS011;23372;52.050;4.810;2023-06-04T13:08:42;2.95;;;1.30;;
37527;SDS011;23372;52.050;4.810;2023-06-04T13:11:08;3.65;;;1.38;;
37527;SDS011;23372;52.050;4.810;2023-06-04T13:13:34;6.22;;;1.80;;
37527;SDS011;23372;52.050;4.810;2023-06-04T13:16:00;5.65;;;1.23;;
37527;SDS011;23372;52.050;4.810;2023-06-04T13:18:26;2.53;;;1.90;;
37527;SDS011;23372;52.050;4.810;2023-06-04T13:20:52;4.10;;;1.60;;
37527;SDS011;23372;52.050;4.810;2023-06-04T13:23:18;3.50;;;1.65;;
37527;SDS011;23372;52.050;4.810;2023-06-04T13:25:43;3.63;;;1.50;;
37527;SDS011;23372;52.050;4.810;2023-06-04T13:28:09;4.55;;;1.58;;
37527;SDS011;23372;52.050;4.810;2023-06-04T13:30:35;4.63;;;1.60;;
37527;SDS011;23372;52.050;4.810;2023-06-04T13:33:05;3.67;;;1.30;;
37527;SDS011;23372;52.050;4.810;2023-06-04T13:35:31;5.93;;;1.40;;
37527;SDS011;23372;52.050;4.810;2023-06-04T13:37:56;3.65;;;1.20;;
37527;SDS011;23372;52.050;4.810;2023-06-04T13:40:22;2.72;;;1.35;;
37527;SDS011;23372;52.050;4.810;2023-06-04T13:42:48;2.80;;;1.52;;
37527;SDS011;23372;52.050;4.810;2023-06-04T13:45:13;2.83;;;1.20;;
37527;SDS011;23372;52.050;4.810;2023-06-04T13:47:41;8.90;;;1.50;;
37527;SDS011;23372;52.050;4.810;2023-06-04T13:50:06;3.20;;;1.65;;
37527;SDS011;23372;52.050;4.810;2023-06-04T13:52:32;3.63;;;1.45;;
37527;SDS011;23372;52.050;4.810;2023-06-04T13:54:58;5.80;;;1.40;;
37527;SDS011;23372;52.050;4.810;2023-06-04T13:57:27;4.70;;;1.88;;
37527;SDS011;23372;52.050;4.810;2023-06-04T13:59:53;5.13;;;1.58;;
37527;SDS011;23372;52.050;4.810;2023-06-04T14:02:19;3.13;;;1.55;;
37527;SDS011;23372;52.050;4.810;2023-06-04T14:04:45;5.35;;;1.42;;
37527;SDS011;23372;52.050;4.810;2023-06-04T14:07:11;4.05;;;1.50;;
37527;SDS011;23372;52.050;4.810;2023-06-04T14:09:37;5.85;;;1.95;;
37527;SDS011;23372;52.050;4.810;2023-06-04T14:12:03;4.85;;;1.30;;
37527;SDS011;23372;52.050;4.810;2023-06-04T14:14:28;4.57;;;1.70;;
37527;SDS011;23372;52.050;4.810;2023-06-04T14:17:01;4.25;;;1.55;;
37527;SDS011;23372;52.050;4.810;2023-06-04T14:19:27;3.72;;;1.33;;
37527;SDS011;23372;52.050;4.810;2023-06-04T14:21:53;5.45;;;1.60;;
37527;SDS011;23372;52.050;4.810;2023-06-04T14:24:18;4.07;;;1.63;;
37527;SDS011;23372;52.050;4.810;2023-06-04T14:26:44;4.75;;;1.50;;
37527;SDS011;23372;52.050;4.810;2023-06-04T14:29:10;3.03;;;1.50;;
37527;SDS011;23372;52.050;4.810;2023-06-04T14:31:36;5.32;;;1.60;;
37527;SDS011;23372;52.050;4.810;2023-06-04T14:34:02;4.50;;;2.03;;
37527;SDS011;23372;52.050;4.810;2023-06-04T14:36:28;5.63;;;1.70;;
37527;SDS011;23372;52.050;4.810;2023-06-04T14:38:53;4.25;;;1.60;;
37527;SDS011;23372;52.050;4.810;2023-06-04T14:41:19;3.47;;;1.60;;
37527;SDS011;23372;52.050;4.810;2023-06-04T14:43:44;3.53;;;1.65;;
37527;SDS011;23372;52.050;4.810;2023-06-04T14:46:10;4.20;;;1.67;;
37527;SDS011;23372;52.050;4.810;2023-06-04T14:48:36;5.90;;;1.73;;
37527;SDS011;23372;52.050;4.810;2023-06-04T14:51:01;4.63;;;1.70;;
37527;SDS011;23372;52.050;4.810;2023-06-04T14:53:27;4.03;;;1.45;;
37527;SDS011;23372;52.050;4.810;2023-06-04T14:55:52;5.18;;;1.70;;
37527;SDS011;23372;52.050;4.810;2023-06-04T14:58:18;5.68;;;1.65;;